createdAt,value
2022-11-27T00:00:17.178Z,71.12
2022-11-27T00:01:17.190Z,71.12
2022-11-27T00:02:17.310Z,71.12
2022-11-27T00:03:17.551Z,71.12
2022-11-27T00:04:17.548Z,71.12
2022-11-27T00:05:17.572Z,71.01
2022-11-27T00:06:17.619Z,71.12
2022-11-27T00:07:17.745Z,71.12
2022-11-27T00:08:17.809Z,71.22
2022-11-27T00:09:17.918Z,71.22
2022-11-27T00:10:17.966Z,71.33
2022-11-27T00:11:18.072Z,71.22
2022-11-27T00:12:18.144Z,71.12
2022-11-27T00:13:18.225Z,70.91
2022-11-27T00:14:18.302Z,70.60
2022-11-27T00:15:18.407Z,70.39
2022-11-27T00:16:18.594Z,70.50
2022-11-27T00:17:18.581Z,70.53
2022-11-27T00:18:18.666Z,70.42
2022-11-27T00:19:18.734Z,70.32
2022-11-27T00:20:18.887Z,70.32
2022-11-27T00:21:18.867Z,70.32
2022-11-27T00:22:18.934Z,70.53
2022-11-27T00:23:19.018Z,70.63
2022-11-27T00:24:19.093Z,70.84
2022-11-27T00:25:19.170Z,70.94
2022-11-27T00:26:19.248Z,71.04
2022-11-27T00:27:19.299Z,71.04
2022-11-27T00:28:19.424Z,71.15
2022-11-27T00:29:19.492Z,71.15
2022-11-27T00:30:19.632Z,71.04
2022-11-27T00:31:19.726Z,71.04
2022-11-27T00:32:19.719Z,71.04
2022-11-27T00:33:19.779Z,71.04
2022-11-27T00:34:19.847Z,71.04
2022-11-27T00:35:20.097Z,71.04
2022-11-27T00:36:20.028Z,71.04
2022-11-27T00:37:20.102Z,70.84
2022-11-27T00:38:20.222Z,70.63
2022-11-27T00:39:20.325Z,70.73
2022-11-27T00:40:20.423Z,70.73
2022-11-27T00:41:20.481Z,70.73
2022-11-27T00:42:20.597Z,70.73
2022-11-27T00:43:20.675Z,70.73
2022-11-27T00:44:20.828Z,70.73
2022-11-27T00:45:20.884Z,70.73
2022-11-27T00:46:25.363Z,70.73
2022-11-27T00:47:21.019Z,70.63
2022-11-27T00:48:21.090Z,70.53
2022-11-27T00:49:21.150Z,70.63
2022-11-27T00:50:21.333Z,70.63
2022-11-27T00:51:21.366Z,70.63
2022-11-27T00:52:21.482Z,70.63
2022-11-27T00:53:21.557Z,70.63
2022-11-27T00:54:22.867Z,70.53
2022-11-27T00:55:21.713Z,70.53
2022-11-27T00:56:21.837Z,70.53
2022-11-27T00:57:21.851Z,70.63
2022-11-27T00:58:21.930Z,70.63
2022-11-27T00:59:22.062Z,70.53
2022-11-27T01:00:22.115Z,70.53
2022-11-27T01:01:22.229Z,70.53
2022-11-27T01:02:22.357Z,70.53
2022-11-27T01:03:22.329Z,70.42
2022-11-27T01:04:22.391Z,70.42
2022-11-27T01:05:22.478Z,70.53
2022-11-27T01:06:22.560Z,70.53
2022-11-27T01:07:22.735Z,70.63
2022-11-27T01:08:22.733Z,70.63
2022-11-27T01:09:22.802Z,70.53
2022-11-27T01:10:22.924Z,70.42
2022-11-27T01:11:22.994Z,70.42
2022-11-27T01:12:23.073Z,70.53
2022-11-27T01:13:23.183Z,70.53
2022-11-27T01:14:23.310Z,70.53
2022-11-27T01:15:23.369Z,70.53
2022-11-27T01:16:23.558Z,70.63
2022-11-27T01:17:23.525Z,70.63
2022-11-27T01:18:23.590Z,70.63
2022-11-27T01:19:23.692Z,70.53
2022-11-27T01:20:23.791Z,70.53
2022-11-27T01:21:23.850Z,70.53
2022-11-27T01:22:23.920Z,70.53
2022-11-27T01:23:24.015Z,70.42
2022-11-27T01:24:24.087Z,70.32
2022-11-27T01:25:26.932Z,70.32
2022-11-27T01:26:24.283Z,70.32
2022-11-27T01:27:24.347Z,70.21
2022-11-27T01:28:24.421Z,70.11
2022-11-27T01:29:24.497Z,70.11
2022-11-27T01:30:24.599Z,70.11
2022-11-27T01:31:24.809Z,70.01
2022-11-27T01:32:24.776Z,70.01
2022-11-27T01:33:24.845Z,70.04
2022-11-27T01:34:24.919Z,70.04
2022-11-27T01:35:25.040Z,70.15
2022-11-27T01:36:25.083Z,70.15
2022-11-27T01:37:25.191Z,70.04
2022-11-27T01:38:25.263Z,70.04
2022-11-27T01:39:25.329Z,70.04
2022-11-27T01:40:25.473Z,69.94
2022-11-27T01:41:25.508Z,69.94
2022-11-27T01:42:25.582Z,69.94
2022-11-27T01:43:25.661Z,69.84
2022-11-27T01:44:25.740Z,69.84
2022-11-27T01:45:25.817Z,69.84
2022-11-27T01:46:26.005Z,69.84
2022-11-27T01:47:25.983Z,69.84
2022-11-27T01:48:26.106Z,69.84
2022-11-27T01:49:26.125Z,69.84
2022-11-27T01:50:26.231Z,69.94
2022-11-27T01:51:26.302Z,69.84
2022-11-27T01:52:26.383Z,69.84
2022-11-27T01:53:26.467Z,69.73
2022-11-27T01:54:26.544Z,69.73
2022-11-27T01:55:26.628Z,69.63
2022-11-27T01:56:26.731Z,69.53
2022-11-27T01:57:26.800Z,69.42
2022-11-27T01:58:26.915Z,69.32
2022-11-27T01:59:26.979Z,69.32
2022-11-27T02:00:27.068Z,69.21
2022-11-27T02:01:27.327Z,69.14
2022-11-27T02:02:27.279Z,69.04
2022-11-27T02:03:27.425Z,68.93
2022-11-27T02:04:27.370Z,68.93
2022-11-27T02:05:27.481Z,68.83
2022-11-27T02:06:27.535Z,69.04
2022-11-27T02:07:27.716Z,69.14
2022-11-27T02:08:27.681Z,69.24
2022-11-27T02:09:27.779Z,69.35
2022-11-27T02:10:27.818Z,69.45
2022-11-27T02:11:27.887Z,69.56
2022-11-27T02:12:27.958Z,69.35
2022-11-27T02:13:28.093Z,69.35
2022-11-27T02:14:28.117Z,69.27
2022-11-27T02:15:28.197Z,69.27
2022-11-27T02:16:28.358Z,69.38
2022-11-27T02:17:28.371Z,69.27
2022-11-27T02:18:28.442Z,69.17
2022-11-27T02:19:28.511Z,69.07
2022-11-27T02:20:28.597Z,69.07
2022-11-27T02:21:28.686Z,69.17
2022-11-27T02:22:28.756Z,69.17
2022-11-27T02:23:28.828Z,69.27
2022-11-27T02:24:28.945Z,69.38
2022-11-27T02:25:29.027Z,69.59
2022-11-27T02:26:29.043Z,69.69
2022-11-27T02:27:29.122Z,69.79
2022-11-27T02:28:29.203Z,69.79
2022-11-27T02:29:29.285Z,69.90
2022-11-27T02:30:29.375Z,69.90
2022-11-27T02:31:29.566Z,70.00
2022-11-27T02:32:29.518Z,70.00
2022-11-27T02:33:29.629Z,69.90
2022-11-27T02:34:29.741Z,69.79
2022-11-27T02:35:29.830Z,69.69
2022-11-27T02:36:29.893Z,69.59
2022-11-27T02:37:30.009Z,69.59
2022-11-27T02:38:30.082Z,69.38
2022-11-27T02:39:30.199Z,69.38
2022-11-27T02:40:30.237Z,69.48
2022-11-27T02:41:30.309Z,69.48
2022-11-27T02:42:30.425Z,69.59
2022-11-27T02:43:30.483Z,69.59
2022-11-27T02:44:30.538Z,69.59
2022-11-27T02:45:30.666Z,69.69
2022-11-27T02:46:30.751Z,69.69
2022-11-27T02:47:30.837Z,69.69
2022-11-27T02:48:30.910Z,69.69
2022-11-27T02:49:30.983Z,69.79
2022-11-27T02:50:31.079Z,69.69
2022-11-27T02:51:31.196Z,69.48
2022-11-27T02:52:31.215Z,69.48
2022-11-27T02:53:31.328Z,69.59
2022-11-27T02:54:31.392Z,69.59
2022-11-27T02:55:31.552Z,69.69
2022-11-27T02:56:31.583Z,69.69
2022-11-27T02:57:31.666Z,69.69
2022-11-27T02:58:31.747Z,69.69
2022-11-27T03:00:57.936Z,69.83
2022-11-27T03:38:40.396Z,71.55
2022-11-27T03:46:21.101Z,71.37
2022-11-27T04:04:47.016Z,72.20
2022-11-27T04:05:47.786Z,71.97
2022-11-27T04:09:07.029Z,71.65
2022-11-27T04:42:16.425Z,72.31
2022-11-27T07:57:21.606Z,73.73
2022-11-27T07:58:22.609Z,73.73
2022-11-27T07:59:22.636Z,73.73
2022-11-27T08:00:22.647Z,73.59
2022-11-27T08:01:22.819Z,73.49
2022-11-27T08:02:22.909Z,73.28
2022-11-27T08:03:22.897Z,73.07
2022-11-27T08:04:23.093Z,73.03
2022-11-27T08:05:23.157Z,72.83
2022-11-27T08:06:23.194Z,72.72
2022-11-27T08:07:23.357Z,72.72
2022-11-27T08:08:23.354Z,72.69
2022-11-27T08:09:23.486Z,72.69
2022-11-27T08:54:18.617Z,74.21
2022-11-27T08:55:19.724Z,74.01
2022-11-27T08:56:19.683Z,74.01
2022-11-27T08:57:19.819Z,74.08
2022-11-27T08:58:19.839Z,73.97
2022-11-27T08:59:19.979Z,73.97
2022-11-27T09:00:24.934Z,73.97
2022-11-27T09:02:35.373Z,73.83
2022-11-27T09:03:36.508Z,73.73
2022-11-27T09:04:36.550Z,73.63
2022-11-27T09:05:36.540Z,73.63
2022-11-27T09:06:36.625Z,73.60
2022-11-27T09:07:36.814Z,73.60
2022-11-27T09:08:36.764Z,73.49
2022-11-27T09:09:36.914Z,73.39
2022-11-27T09:10:36.927Z,73.18
2022-11-27T09:11:37.062Z,73.04
2022-11-27T09:12:41.911Z,73.04
2022-11-27T09:13:37.201Z,73.14
2022-11-27T09:14:37.351Z,73.04
2022-11-27T09:15:37.381Z,72.63
2022-11-27T09:16:37.504Z,72.31
2022-11-27T09:17:37.526Z,72.42
2022-11-27T09:18:37.641Z,72.38
2022-11-27T09:19:37.744Z,72.38
2022-11-27T09:20:37.779Z,72.38
2022-11-27T09:21:37.927Z,72.28
2022-11-27T09:22:38.004Z,72.17
2022-11-27T09:23:38.067Z,72.17
2022-11-27T09:24:38.530Z,72.04
2022-11-27T09:25:38.233Z,71.94
2022-11-27T09:26:38.342Z,71.83
2022-11-27T09:27:38.436Z,71.70
2022-11-27T09:28:38.525Z,71.70
2022-11-27T09:29:38.660Z,71.70
2022-11-27T09:30:38.702Z,71.70
2022-11-27T09:31:38.872Z,71.70
2022-11-27T09:32:38.846Z,71.70
2022-11-27T09:33:38.989Z,71.49
2022-11-27T09:34:39.550Z,71.59
2022-11-27T09:35:39.180Z,71.49
2022-11-27T09:36:39.159Z,71.59
2022-11-27T09:37:39.247Z,71.70
2022-11-27T09:38:39.360Z,71.70
2022-11-27T09:39:39.478Z,71.80
2022-11-27T09:40:39.517Z,71.70
2022-11-27T09:41:39.871Z,71.59
2022-11-27T09:42:39.730Z,71.49
2022-11-27T09:43:39.815Z,71.59
2022-11-27T09:44:40.318Z,71.59
2022-11-27T09:45:40.074Z,71.70
2022-11-27T09:46:40.141Z,71.80
2022-11-27T09:47:41.803Z,71.80
2022-11-27T09:48:40.209Z,71.80
2022-11-27T09:49:40.306Z,71.91
2022-11-27T09:50:40.385Z,71.91
2022-11-27T09:51:40.484Z,71.91
2022-11-27T09:52:40.533Z,72.01
2022-11-27T09:53:40.638Z,72.22
2022-11-27T09:54:40.959Z,72.22
2022-11-27T09:55:40.814Z,72.22
2022-11-27T09:56:40.898Z,72.18
2022-11-27T09:57:41.004Z,72.18
2022-11-27T09:58:41.083Z,72.18
2022-11-27T09:59:41.198Z,72.18
2022-11-27T10:00:41.233Z,72.08
2022-11-27T10:01:47.713Z,72.18
2022-11-27T10:02:41.550Z,72.18
2022-11-27T10:03:41.548Z,72.28
2022-11-27T10:05:05.700Z,72.39
2022-11-27T10:05:41.630Z,72.39
2022-11-27T10:06:41.833Z,72.49
2022-11-27T10:07:41.866Z,72.39
2022-11-27T10:08:41.882Z,72.39
2022-11-27T10:09:42.000Z,72.39
2022-11-27T10:10:42.045Z,72.49
2022-11-27T10:11:42.097Z,72.56
2022-11-27T10:12:42.201Z,72.56
2022-11-27T10:13:42.301Z,72.56
2022-11-27T10:14:42.739Z,72.46
2022-11-27T10:15:42.479Z,72.46
2022-11-27T10:16:44.739Z,72.46
2022-11-27T10:17:42.624Z,72.46
2022-11-27T10:18:42.730Z,72.25
2022-11-27T10:19:42.818Z,72.25
2022-11-27T10:20:42.847Z,72.36
2022-11-27T10:21:42.928Z,72.36
2022-11-27T10:22:43.006Z,72.15
2022-11-27T10:23:43.091Z,72.15
2022-11-27T10:24:43.357Z,72.05
2022-11-27T10:25:43.304Z,72.05
2022-11-27T10:26:43.345Z,72.11
2022-11-27T10:27:43.464Z,72.11
2022-11-27T10:28:43.487Z,72.22
2022-11-27T10:29:47.267Z,72.32
2022-11-27T10:30:43.628Z,72.22
2022-11-27T10:31:43.804Z,72.22
2022-11-27T10:32:59.221Z,72.01
2022-11-27T10:33:43.878Z,71.91
2022-11-27T10:34:44.079Z,71.77
2022-11-27T10:35:44.036Z,71.88
2022-11-27T10:36:44.143Z,71.88
2022-11-27T10:37:44.239Z,71.88
2022-11-27T10:38:44.308Z,71.98
2022-11-27T10:39:44.356Z,71.98
2022-11-27T10:40:52.011Z,72.08
2022-11-27T10:41:51.624Z,71.98
2022-11-27T10:42:44.631Z,72.08
2022-11-27T10:43:44.737Z,72.29
2022-11-27T10:44:44.789Z,72.29
2022-11-27T10:45:44.852Z,72.39
2022-11-27T10:46:44.918Z,72.39
2022-11-27T10:47:45.028Z,72.39
2022-11-27T10:48:45.060Z,72.29
2022-11-27T10:49:45.173Z,72.29
2022-11-27T10:50:45.212Z,72.29
2022-11-27T10:51:45.288Z,72.29
2022-11-27T10:52:49.529Z,72.29
2022-11-27T10:53:45.462Z,72.39
2022-11-27T10:54:45.642Z,72.29
2022-11-27T10:55:45.638Z,72.19
2022-11-27T10:56:45.728Z,72.29
2022-11-27T10:57:45.811Z,72.39
2022-11-27T10:58:45.939Z,72.29
2022-11-27T10:59:45.995Z,72.29
2022-11-27T11:00:46.171Z,72.29
2022-11-27T11:01:46.172Z,72.19
2022-11-27T11:02:46.297Z,72.29
2022-11-27T11:03:46.308Z,72.19
2022-11-27T11:04:58.592Z,72.19
2022-11-27T11:06:12.211Z,72.29
2022-11-27T11:06:46.570Z,72.29
2022-11-27T11:07:46.711Z,72.29
2022-11-27T11:08:46.767Z,72.29
2022-11-27T11:09:46.826Z,72.25
2022-11-27T11:10:46.881Z,72.36
2022-11-27T11:11:46.945Z,72.36
2022-11-27T11:12:47.062Z,72.36
2022-11-27T11:13:47.133Z,72.36
2022-11-27T11:14:47.212Z,72.36
2022-11-27T11:15:51.488Z,72.46
2022-11-27T11:16:47.399Z,72.56
2022-11-27T11:17:47.455Z,72.56
2022-11-27T11:18:47.559Z,72.56
2022-11-27T11:19:47.724Z,72.56
2022-11-27T11:20:47.711Z,72.67
2022-11-27T11:21:47.797Z,72.46
2022-11-27T11:22:47.877Z,72.22
2022-11-27T11:23:47.970Z,72.02
2022-11-27T11:24:48.111Z,71.91
2022-11-27T11:25:48.158Z,71.81
2022-11-27T11:26:48.240Z,71.70
2022-11-27T11:27:48.323Z,71.70
2022-11-27T11:28:48.511Z,71.70
2022-11-27T11:29:48.523Z,71.70
2022-11-27T11:30:48.664Z,71.70
2022-11-27T11:31:48.726Z,71.60
2022-11-27T11:32:48.737Z,71.60
2022-11-27T11:33:48.825Z,71.60
2022-11-27T11:34:48.956Z,71.50
2022-11-27T11:35:49.001Z,71.39
2022-11-27T11:36:49.065Z,71.26
2022-11-27T11:37:49.147Z,71.15
2022-11-27T11:38:49.231Z,71.05
2022-11-27T11:39:49.473Z,71.05
2022-11-27T11:40:49.381Z,70.84
2022-11-27T11:41:49.457Z,70.84
2022-11-27T11:42:49.559Z,70.74
2022-11-27T11:43:49.635Z,70.74
2022-11-27T11:44:49.740Z,70.53
2022-11-27T11:45:49.871Z,70.64
2022-11-27T11:46:49.888Z,70.53
2022-11-27T11:47:49.962Z,70.22
2022-11-27T11:48:50.070Z,70.12
2022-11-27T11:49:50.096Z,70.22
2022-11-27T11:50:50.183Z,70.32
2022-11-27T11:51:50.262Z,70.43
2022-11-27T11:52:50.354Z,70.53
2022-11-27T11:53:50.454Z,70.22
2022-11-27T11:54:50.542Z,70.22
2022-11-27T11:55:50.581Z,70.32
2022-11-27T11:56:50.704Z,70.32
2022-11-27T11:57:50.763Z,70.43
2022-11-27T11:58:50.864Z,70.53
2022-11-27T11:59:50.997Z,70.53
2022-11-27T12:01:19.216Z,70.53
2022-11-27T12:01:51.075Z,70.53
2022-11-27T12:02:51.152Z,70.64
2022-11-27T12:03:51.268Z,70.77
2022-11-27T12:04:51.441Z,70.77
2022-11-27T12:05:51.433Z,70.77
2022-11-27T12:06:51.513Z,70.77
2022-11-27T12:07:52.614Z,70.43
2022-11-27T12:08:51.703Z,69.92
2022-11-27T12:09:51.796Z,69.40
2022-11-27T12:10:51.885Z,69.50
2022-11-27T12:11:51.972Z,69.50
2022-11-27T12:12:52.049Z,69.60
2022-11-27T12:13:52.089Z,69.60
2022-11-27T12:14:52.192Z,69.71
2022-11-27T12:15:52.219Z,69.81
2022-11-27T12:16:52.399Z,69.60
2022-11-27T12:17:52.424Z,69.50
2022-11-27T12:18:52.464Z,69.50
2022-11-27T12:19:52.572Z,69.60
2022-11-27T12:20:52.643Z,69.60
2022-11-27T12:21:52.687Z,69.60
2022-11-27T12:22:52.795Z,69.60
2022-11-27T12:23:52.873Z,69.50
2022-11-27T12:24:52.982Z,69.50
2022-11-27T12:25:53.014Z,69.40
2022-11-27T12:26:53.085Z,69.29
2022-11-27T12:27:53.200Z,69.19
2022-11-27T12:28:58.997Z,69.19
2022-11-27T12:29:53.366Z,69.09
2022-11-27T12:30:53.409Z,68.85
2022-11-27T12:31:53.551Z,68.74
2022-11-27T12:32:53.599Z,68.64
2022-11-27T12:33:53.623Z,68.43
2022-11-27T12:34:53.762Z,68.33
2022-11-27T12:35:53.769Z,68.23
2022-11-27T12:36:53.850Z,68.12
2022-11-27T12:37:53.978Z,68.02
2022-11-27T12:38:54.023Z,68.02
2022-11-27T12:39:54.115Z,67.91
2022-11-27T12:40:54.190Z,67.91
2022-11-27T12:41:54.271Z,67.82
2022-11-27T12:42:54.338Z,67.68
2022-11-27T12:43:54.414Z,67.68
2022-11-27T12:44:54.518Z,67.47
2022-11-27T12:45:54.605Z,67.47
2022-11-27T12:46:54.710Z,67.47
2022-11-27T12:47:54.736Z,67.58
2022-11-27T12:48:54.822Z,67.68
2022-11-27T12:49:54.927Z,67.68
2022-11-27T12:50:55.014Z,67.58
2022-11-27T12:51:55.185Z,67.68
2022-11-27T12:52:55.187Z,67.58
2022-11-27T12:53:55.245Z,67.58
2022-11-27T12:54:55.385Z,67.58
2022-11-27T12:55:55.411Z,67.58
2022-11-27T12:56:55.492Z,67.58
2022-11-27T12:57:55.567Z,67.68
2022-11-27T12:58:55.682Z,67.68
2022-11-27T12:59:55.734Z,67.58
2022-11-27T13:00:55.877Z,67.58
2022-11-27T13:01:56.031Z,67.34
2022-11-27T13:02:55.949Z,67.24
2022-11-27T13:03:56.044Z,67.24
2022-11-27T13:04:56.135Z,67.24
2022-11-27T13:05:56.219Z,67.24
2022-11-27T13:06:56.304Z,66.93
2022-11-27T13:07:56.495Z,66.51
2022-11-27T13:08:56.513Z,66.61
2022-11-27T13:09:56.604Z,66.61
2022-11-27T13:10:56.689Z,66.61
2022-11-27T13:11:56.764Z,66.72
2022-11-27T13:12:56.872Z,66.72
2022-11-27T13:13:56.951Z,66.82
2022-11-27T13:14:57.056Z,66.93
2022-11-27T13:15:57.190Z,66.79
2022-11-27T13:16:57.320Z,66.69
2022-11-27T13:17:57.390Z,66.69
2022-11-27T13:18:57.401Z,66.79
2022-11-27T13:19:57.442Z,66.69
2022-11-27T13:20:57.533Z,66.69
2022-11-27T13:21:57.658Z,66.79
2022-11-27T13:22:57.674Z,66.89
2022-11-27T13:23:57.751Z,66.89
2022-11-27T13:24:57.858Z,67.00
2022-11-27T13:25:57.941Z,67.10
2022-11-27T13:26:58.056Z,67.21
2022-11-27T13:27:58.088Z,67.21
2022-11-27T13:28:58.183Z,67.21
2022-11-27T13:29:58.273Z,67.10
2022-11-27T13:30:58.359Z,67.10
2022-11-27T13:31:58.497Z,67.21
2022-11-27T13:32:58.530Z,67.30
2022-11-27T13:33:58.628Z,67.21
2022-11-27T13:34:58.758Z,67.17
2022-11-27T13:35:58.808Z,67.07
2022-11-27T13:36:58.895Z,67.07
2022-11-27T13:37:58.982Z,67.17
2022-11-27T13:38:59.057Z,67.17
2022-11-27T13:39:59.159Z,67.27
2022-11-27T13:40:59.221Z,67.38
2022-11-27T13:41:59.332Z,67.38
2022-11-27T13:42:59.422Z,67.38
2022-11-27T13:43:59.507Z,67.27
2022-11-27T13:44:59.600Z,67.17
2022-11-27T13:45:59.750Z,67.17
2022-11-27T13:46:59.778Z,67.17
2022-11-27T13:47:59.819Z,67.27
2022-11-27T13:48:59.905Z,67.27
2022-11-27T13:50:00.102Z,67.17
2022-11-27T13:51:00.068Z,67.17
2022-11-27T13:52:00.145Z,67.17
2022-11-27T13:53:00.251Z,67.17
2022-11-27T13:54:00.315Z,67.17
2022-11-27T13:55:00.414Z,67.17
2022-11-27T13:56:00.486Z,67.07
2022-11-27T13:57:00.568Z,66.97
2022-11-27T13:58:00.655Z,66.97
2022-11-27T13:59:00.733Z,67.07
2022-11-27T14:00:00.836Z,67.07
2022-11-27T14:01:00.977Z,67.17
2022-11-27T14:02:01.075Z,67.27
2022-11-27T14:03:01.027Z,67.27
2022-11-27T14:04:01.119Z,67.38
2022-11-27T14:05:01.275Z,67.38
2022-11-27T14:06:01.277Z,67.48
2022-11-27T14:07:01.355Z,67.58
2022-11-27T14:08:01.510Z,67.58
2022-11-27T14:09:02.054Z,67.58
2022-11-27T14:10:01.599Z,67.58
2022-11-27T14:11:01.683Z,67.69
2022-11-27T14:12:01.761Z,67.79
2022-11-27T14:13:01.870Z,67.90
2022-11-27T14:14:01.972Z,67.90
2022-11-27T14:15:02.048Z,68.00
2022-11-27T14:16:02.303Z,68.10
2022-11-27T14:17:02.178Z,68.10
2022-11-27T14:18:02.239Z,68.10
2022-11-27T14:19:02.325Z,68.10
2022-11-27T14:20:02.465Z,68.21
2022-11-27T14:21:02.502Z,68.21
2022-11-27T14:22:02.573Z,68.21
2022-11-27T14:23:18.019Z,68.21
2022-11-27T14:24:02.759Z,68.21
2022-11-27T14:25:02.865Z,68.21
2022-11-27T14:26:02.885Z,68.21
2022-11-27T14:27:02.975Z,68.21
2022-11-27T14:28:03.069Z,68.21
2022-11-27T14:29:03.109Z,68.21
2022-11-27T14:30:03.219Z,68.30
2022-11-27T14:31:03.387Z,68.30
2022-11-27T14:32:03.417Z,68.21
2022-11-27T14:33:03.462Z,68.21
2022-11-27T14:34:23.388Z,68.10
2022-11-27T14:35:03.692Z,68.21
2022-11-27T14:36:03.712Z,68.30
2022-11-27T14:37:03.779Z,68.30
2022-11-27T14:38:03.866Z,68.41
2022-11-27T14:39:03.972Z,68.41
2022-11-27T14:40:04.073Z,68.51
2022-11-27T14:41:04.136Z,68.51
2022-11-27T14:42:04.177Z,68.62
2022-11-27T14:43:04.295Z,68.62
2022-11-27T14:44:04.323Z,68.62
2022-11-27T14:45:04.433Z,68.62
2022-11-27T14:46:04.468Z,68.72
2022-11-27T14:47:04.589Z,68.72
2022-11-27T14:48:04.640Z,68.72
2022-11-27T14:49:04.737Z,68.82
2022-11-27T14:50:04.829Z,68.93
2022-11-27T14:51:04.950Z,68.93
2022-11-27T14:52:05.000Z,69.03
2022-11-27T14:53:05.075Z,69.06
2022-11-27T14:54:05.153Z,69.06
2022-11-27T14:55:05.252Z,69.06
2022-11-27T14:56:05.288Z,69.17
2022-11-27T14:57:05.369Z,69.27
2022-11-27T14:58:05.442Z,69.37
2022-11-27T14:59:05.525Z,69.48
2022-11-27T15:00:05.662Z,69.58
2022-11-27T15:01:05.704Z,69.78
2022-11-27T15:07:30.675Z,70.43
2022-11-27T15:08:30.105Z,70.54
2022-11-27T15:09:32.400Z,70.64
2022-11-27T15:10:30.204Z,70.75
2022-11-27T15:11:54.547Z,70.75
2022-11-27T15:12:30.368Z,70.75
2022-11-27T15:13:30.437Z,70.75
2022-11-27T15:14:30.534Z,70.75
2022-11-27T15:15:30.658Z,70.75
2022-11-27T15:16:30.763Z,70.75
2022-11-27T15:17:30.815Z,70.75
2022-11-27T15:18:30.881Z,70.75
2022-11-27T15:19:31.052Z,70.85
2022-11-27T15:20:31.043Z,70.85
2022-11-27T15:21:31.197Z,70.75
2022-11-27T15:22:31.227Z,70.85
2022-11-27T15:23:31.301Z,70.85
2022-11-27T15:24:31.317Z,70.85
2022-11-27T15:25:31.468Z,70.95
2022-11-27T15:26:31.511Z,70.95
2022-11-27T15:27:31.638Z,71.06
2022-11-27T15:28:31.710Z,71.06
2022-11-27T18:46:42.207Z,75.92
2022-11-27T20:00:56.415Z,76.29
2022-11-27T20:36:38.247Z,76.50
2022-11-27T20:40:42.755Z,76.40
2022-11-27T20:41:43.664Z,76.29
2022-11-27T20:42:43.785Z,76.40
2022-11-27T20:46:46.487Z,76.29
2022-11-27T20:57:43.280Z,76.50
2022-11-27T21:10:07.750Z,76.50
2022-11-27T21:11:08.778Z,76.50
2022-11-27T21:12:08.860Z,76.50
2022-11-27T21:13:08.961Z,76.50
2022-11-27T21:14:08.999Z,76.50
2022-11-27T21:15:09.104Z,76.37
2022-11-27T21:16:09.222Z,76.37
2022-11-27T21:17:09.336Z,76.26
2022-11-27T21:18:09.344Z,76.26
2022-11-27T21:19:09.542Z,76.16
2022-11-27T21:20:09.489Z,76.16
2022-11-27T21:21:09.557Z,76.02
2022-11-27T21:22:09.656Z,75.92
2022-11-27T21:23:09.723Z,75.81
2022-11-27T21:24:09.759Z,75.71
2022-11-27T21:25:09.847Z,75.71
2022-11-27T21:26:09.943Z,75.71
2022-11-27T21:27:10.125Z,75.71
2022-11-27T21:28:10.115Z,75.71
2022-11-27T21:29:10.154Z,75.60
2022-11-27T21:30:10.267Z,75.50
2022-11-27T21:31:10.298Z,75.46
2022-11-27T21:32:10.462Z,75.46
2022-11-27T21:33:10.458Z,75.36
2022-11-27T21:34:10.542Z,75.26
2022-11-27T21:35:10.650Z,75.15
2022-11-27T21:36:10.729Z,75.15
2022-11-27T21:37:10.814Z,75.05
2022-11-27T21:38:10.912Z,75.15
2022-11-27T21:39:10.999Z,75.05
2022-11-27T21:40:11.094Z,75.05
2022-11-27T21:41:11.195Z,75.05
2022-11-27T21:42:11.240Z,75.05
2022-11-27T21:43:11.315Z,75.05
2022-11-27T21:44:11.384Z,75.05
2022-11-27T21:45:11.545Z,75.05
2022-11-27T21:46:11.599Z,74.95
2022-11-27T21:47:11.631Z,74.84
2022-11-27T21:48:14.336Z,74.84
2022-11-27T21:49:11.796Z,74.84
2022-11-27T21:50:11.872Z,74.84
2022-11-27T21:51:11.927Z,74.74
2022-11-27T21:52:12.021Z,74.74
2022-11-27T21:53:12.086Z,74.74
2022-11-27T21:54:12.172Z,74.74
2022-11-27T21:55:12.466Z,74.74
2022-11-27T21:56:12.370Z,74.63
2022-11-27T21:57:12.400Z,74.63
2022-11-27T21:58:12.472Z,74.63
2022-11-27T21:59:12.565Z,74.53
2022-11-27T22:00:12.686Z,74.50
2022-11-27T22:01:12.839Z,74.50
2022-11-27T22:02:12.885Z,74.53
2022-11-27T22:03:12.918Z,74.53
2022-11-27T22:04:13.035Z,74.50
2022-11-27T22:05:13.124Z,74.40
2022-11-27T22:06:13.238Z,74.40
2022-11-27T22:07:13.347Z,74.40
2022-11-27T22:08:13.376Z,74.50
2022-11-27T22:09:15.707Z,74.50
2022-11-27T22:10:13.580Z,74.50
2022-11-27T22:11:13.673Z,74.50
2022-11-27T22:12:13.739Z,74.50
2022-11-27T22:13:13.793Z,74.50
2022-11-27T22:14:13.878Z,74.40
2022-11-27T22:15:13.987Z,74.40
2022-11-27T22:16:14.083Z,74.29
2022-11-27T22:17:14.221Z,74.29
2022-11-27T22:18:14.189Z,74.29
2022-11-27T22:19:14.606Z,74.29
2022-11-27T22:20:14.335Z,74.29
2022-11-27T22:21:14.351Z,74.29
2022-11-27T22:22:14.435Z,74.29
2022-11-27T22:23:14.519Z,74.29
2022-11-27T22:24:19.359Z,74.40
2022-11-27T22:25:14.720Z,74.40
2022-11-27T22:26:14.774Z,74.40
2022-11-27T22:27:14.835Z,74.29
2022-11-27T22:28:14.916Z,74.29
2022-11-27T22:29:14.991Z,74.29
2022-11-27T22:30:15.127Z,74.29
2022-11-27T22:31:15.249Z,74.29
2022-11-27T22:32:15.248Z,74.19
2022-11-27T22:33:15.319Z,74.19
2022-11-27T22:34:15.388Z,74.08
2022-11-27T22:35:15.479Z,74.08
2022-11-27T22:36:15.569Z,74.19
2022-11-27T22:37:15.654Z,74.19
2022-11-27T22:38:15.735Z,74.08
2022-11-27T22:39:15.874Z,74.08
2022-11-27T22:40:15.941Z,74.08
2022-11-27T22:41:15.990Z,74.08
2022-11-27T22:42:16.074Z,73.98
2022-11-27T22:43:16.150Z,73.98
2022-11-27T22:44:16.220Z,73.88
2022-11-27T22:45:16.324Z,73.88
2022-11-27T22:46:16.460Z,73.88
2022-11-27T22:47:16.450Z,73.88
2022-11-27T22:48:16.545Z,73.88
2022-11-27T22:49:16.617Z,73.88
2022-11-27T22:50:16.743Z,73.98
2022-11-27T22:51:16.799Z,73.98
2022-11-27T22:52:16.891Z,73.98
2022-11-27T22:53:17.600Z,74.08
2022-11-27T22:54:17.383Z,74.08
2022-11-27T22:55:17.122Z,74.08
2022-11-27T22:56:17.166Z,74.08
2022-11-27T22:57:17.253Z,74.08
2022-11-27T22:58:17.342Z,74.08
2022-11-27T22:59:32.100Z,74.08
2022-11-27T23:00:17.547Z,74.08
2022-11-27T23:01:17.554Z,74.19
2022-11-27T23:02:17.712Z,74.19
2022-11-27T23:03:17.761Z,74.19
2022-11-27T23:04:17.825Z,74.19
2022-11-27T23:05:17.925Z,74.08
2022-11-27T23:06:18.016Z,74.08
2022-11-27T23:07:23.705Z,74.08
2022-11-27T23:08:18.176Z,74.08
2022-11-27T23:09:18.242Z,74.08
2022-11-27T23:10:18.342Z,73.98
2022-11-27T23:11:18.365Z,74.08
2022-11-27T23:12:18.507Z,74.08
2022-11-27T23:13:18.515Z,74.08
2022-11-27T23:14:18.576Z,74.08
2022-11-27T23:15:18.696Z,74.08
2022-11-27T23:16:18.855Z,74.08
2022-11-27T23:17:18.828Z,73.98
2022-11-27T23:18:18.910Z,73.98
2022-11-27T23:19:19.001Z,73.98
2022-11-27T23:20:19.101Z,73.98
2022-11-27T23:21:19.173Z,73.98
2022-11-27T23:22:19.249Z,73.98
2022-11-27T23:23:19.324Z,73.98
2022-11-27T23:24:19.407Z,73.98
2022-11-27T23:25:19.652Z,73.98
2022-11-27T23:26:19.568Z,73.98
2022-11-27T23:27:19.659Z,73.98
2022-11-27T23:28:19.742Z,73.88
2022-11-27T23:29:19.819Z,73.77
2022-11-27T23:30:19.940Z,73.67
2022-11-27T23:31:29.840Z,73.67
2022-11-27T23:32:20.158Z,73.67
2022-11-27T23:33:20.133Z,73.67
2022-11-27T23:34:20.252Z,73.77
2022-11-27T23:35:20.295Z,73.77
2022-11-27T23:36:20.419Z,73.77
2022-11-27T23:37:20.463Z,73.88
2022-11-27T23:38:20.559Z,73.88
2022-11-27T23:39:20.654Z,73.88
2022-11-27T23:40:21.148Z,73.88
2022-11-27T23:41:20.863Z,73.88
2022-11-27T23:42:20.913Z,73.88
2022-11-27T23:43:20.995Z,73.88
2022-11-27T23:44:21.102Z,73.88
2022-11-27T23:45:21.138Z,73.88
2022-11-27T23:46:21.365Z,73.98
2022-11-27T23:47:21.295Z,73.98
2022-11-27T23:48:21.380Z,73.98
2022-11-27T23:49:21.455Z,73.98
2022-11-27T23:50:21.589Z,73.98
2022-11-27T23:51:21.652Z,73.98
2022-11-27T23:52:21.729Z,74.08
2022-11-27T23:53:21.799Z,74.08
2022-11-27T23:54:21.882Z,74.08
2022-11-27T23:55:21.988Z,74.08
2022-11-27T23:56:22.093Z,74.08
2022-11-27T23:57:22.143Z,74.08
2022-11-27T23:58:22.241Z,74.08
2022-11-27T23:59:22.305Z,73.98
